sensor_id;sensor_type;location;lat;lon;timestamp;temperature;humidity
67870;DHT22;54673;52.262;6.830;2023-03-23T00:01:55;17.90;52.20
67870;DHT22;54673;52.262;6.830;2023-03-23T00:04:20;17.90;52.20
67870;DHT22;54673;52.262;6.830;2023-03-23T00:06:47;17.90;52.20
67870;DHT22;54673;52.262;6.830;2023-03-23T00:09:13;17.90;52.20
67870;DHT22;54673;52.262;6.830;2023-03-23T00:11:41;17.90;52.10
67870;DHT22;54673;52.262;6.830;2023-03-23T00:14:07;17.90;52.30
67870;DHT22;54673;52.262;6.830;2023-03-23T00:16:39;17.90;52.20
67870;DHT22;54673;52.262;6.830;2023-03-23T00:19:08;17.90;52.20
67870;DHT22;54673;52.262;6.830;2023-03-23T00:21:36;17.90;52.20
67870;DHT22;54673;52.262;6.830;2023-03-23T00:24:09;17.90;52.30
67870;DHT22;54673;52.262;6.830;2023-03-23T00:26:37;17.90;52.60
67870;DHT22;54673;52.262;6.830;2023-03-23T00:29:07;17.90;52.20
67870;DHT22;54673;52.262;6.830;2023-03-23T00:31:33;17.90;52.10
67870;DHT22;54673;52.262;6.830;2023-03-23T00:34:02;17.90;52.20
67870;DHT22;54673;52.262;6.830;2023-03-23T00:36:30;17.90;52.20
67870;DHT22;54673;52.262;6.830;2023-03-23T00:38:57;17.90;52.20
67870;DHT22;54673;52.262;6.830;2023-03-23T00:41:24;17.90;52.10
67870;DHT22;54673;52.262;6.830;2023-03-23T00:43:52;17.90;52.20
67870;DHT22;54673;52.262;6.830;2023-03-23T00:46:18;17.90;52.10
67870;DHT22;54673;52.262;6.830;2023-03-23T00:48:46;17.90;52.10
67870;DHT22;54673;52.262;6.830;2023-03-23T00:51:12;17.80;52.10
67870;DHT22;54673;52.262;6.830;2023-03-23T00:53:39;17.90;52.20
67870;DHT22;54673;52.262;6.830;2023-03-23T00:56:05;17.90;52.10
67870;DHT22;54673;52.262;6.830;2023-03-23T00:58:30;17.90;51.50
67870;DHT22;54673;52.262;6.830;2023-03-23T01:00:56;17.90;52.20
67870;DHT22;54673;52.262;6.830;2023-03-23T01:03:22;17.90;52.10
67870;DHT22;54673;52.262;6.830;2023-03-23T01:05:52;17.90;52.10
67870;DHT22;54673;52.262;6.830;2023-03-23T01:08:18;17.90;52.10
67870;DHT22;54673;52.262;6.830;2023-03-23T01:10:44;17.90;52.20
67870;DHT22;54673;52.262;6.830;2023-03-23T01:13:11;17.90;52.10
67870;DHT22;54673;52.262;6.830;2023-03-23T01:15:37;17.90;52.10
67870;DHT22;54673;52.262;6.830;2023-03-23T01:18:03;17.90;52.10
67870;DHT22;54673;52.262;6.830;2023-03-23T01:20:28;17.90;52.20
67870;DHT22;54673;52.262;6.830;2023-03-23T01:22:57;17.90;52.10
67870;DHT22;54673;52.262;6.830;2023-03-23T01:25:27;17.90;52.20
67870;DHT22;54673;52.262;6.830;2023-03-23T01:27:53;17.90;52.10
67870;DHT22;54673;52.262;6.830;2023-03-23T01:30:19;17.90;52.10
67870;DHT22;54673;52.262;6.830;2023-03-23T01:32:44;17.90;52.00
67870;DHT22;54673;52.262;6.830;2023-03-23T01:35:12;17.90;52.10
67870;DHT22;54673;52.262;6.830;2023-03-23T01:37:38;17.90;52.20
67870;DHT22;54673;52.262;6.830;2023-03-23T01:40:05;17.90;52.10
67870;DHT22;54673;52.262;6.830;2023-03-23T01:42:35;17.80;52.10
67870;DHT22;54673;52.262;6.830;2023-03-23T01:47:45;17.80;52.10
67870;DHT22;54673;52.262;6.830;2023-03-23T01:50:11;17.80;52.20
67870;DHT22;54673;52.262;6.830;2023-03-23T01:52:37;17.90;52.20
67870;DHT22;54673;52.262;6.830;2023-03-23T01:55:03;17.90;52.20
67870;DHT22;54673;52.262;6.830;2023-03-23T01:57:30;17.80;52.10
67870;DHT22;54673;52.262;6.830;2023-03-23T01:59:58;17.80;52.20
67870;DHT22;54673;52.262;6.830;2023-03-23T02:02:32;17.90;52.20
67870;DHT22;54673;52.262;6.830;2023-03-23T02:05:04;17.90;52.20
67870;DHT22;54673;52.262;6.830;2023-03-23T02:07:32;17.90;52.10
67870;DHT22;54673;52.262;6.830;2023-03-23T02:09:58;17.90;52.10
67870;DHT22;54673;52.262;6.830;2023-03-23T02:12:25;17.90;52.00
67870;DHT22;54673;52.262;6.830;2023-03-23T02:14:51;17.80;52.10
67870;DHT22;54673;52.262;6.830;2023-03-23T02:17:46;17.80;52.10
67870;DHT22;54673;52.262;6.830;2023-03-23T02:20:33;17.90;52.10
67870;DHT22;54673;52.262;6.830;2023-03-23T02:23:08;17.90;52.10
67870;DHT22;54673;52.262;6.830;2023-03-23T02:29:08;17.80;52.20
67870;DHT22;54673;52.262;6.830;2023-03-23T02:34:50;17.80;52.20
67870;DHT22;54673;52.262;6.830;2023-03-23T02:37:44;17.90;52.20
67870;DHT22;54673;52.262;6.830;2023-03-23T02:40:18;17.90;52.40
67870;DHT22;54673;52.262;6.830;2023-03-23T02:42:47;17.80;52.10
67870;DHT22;54673;52.262;6.830;2023-03-23T02:45:15;17.90;52.10
67870;DHT22;54673;52.262;6.830;2023-03-23T02:47:42;17.80;52.10
67870;DHT22;54673;52.262;6.830;2023-03-23T02:50:11;17.80;52.00
67870;DHT22;54673;52.262;6.830;2023-03-23T02:52:40;17.80;52.10
67870;DHT22;54673;52.262;6.830;2023-03-23T02:55:07;17.80;52.00
67870;DHT22;54673;52.262;6.830;2023-03-23T02:57:34;17.80;52.10
67870;DHT22;54673;52.262;6.830;2023-03-23T03:00:00;17.80;52.10
67870;DHT22;54673;52.262;6.830;2023-03-23T03:02:31;17.80;52.10
67870;DHT22;54673;52.262;6.830;2023-03-23T03:11:08;17.80;52.20
67870;DHT22;54673;52.262;6.830;2023-03-23T03:14:00;17.80;52.10
67870;DHT22;54673;52.262;6.830;2023-03-23T03:17:08;17.80;52.10
67870;DHT22;54673;52.262;6.830;2023-03-23T03:19:32;17.80;52.10
67870;DHT22;54673;52.262;6.830;2023-03-23T03:22:01;17.80;52.10
67870;DHT22;54673;52.262;6.830;2023-03-23T03:24:28;17.80;52.10
67870;DHT22;54673;52.262;6.830;2023-03-23T03:26:57;17.80;52.00
67870;DHT22;54673;52.262;6.830;2023-03-23T03:29:28;17.80;52.00
67870;DHT22;54673;52.262;6.830;2023-03-23T03:31:57;17.80;52.00
67870;DHT22;54673;52.262;6.830;2023-03-23T03:34:24;17.80;52.00
67870;DHT22;54673;52.262;6.830;2023-03-23T03:36:52;17.80;52.00
67870;DHT22;54673;52.262;6.830;2023-03-23T03:39:19;17.80;52.10
67870;DHT22;54673;52.262;6.830;2023-03-23T03:41:46;17.70;52.10
67870;DHT22;54673;52.262;6.830;2023-03-23T03:44:11;17.80;52.10
67870;DHT22;54673;52.262;6.830;2023-03-23T03:46:38;17.80;52.00
67870;DHT22;54673;52.262;6.830;2023-03-23T03:49:06;17.80;52.10
67870;DHT22;54673;52.262;6.830;2023-03-23T03:51:33;17.80;52.10
67870;DHT22;54673;52.262;6.830;2023-03-23T03:54:00;17.80;52.20
67870;DHT22;54673;52.262;6.830;2023-03-23T03:56:26;17.80;52.10
67870;DHT22;54673;52.262;6.830;2023-03-23T03:58:52;17.80;52.00
67870;DHT22;54673;52.262;6.830;2023-03-23T04:01:20;17.80;52.00
67870;DHT22;54673;52.262;6.830;2023-03-23T04:03:50;17.80;52.10
67870;DHT22;54673;52.262;6.830;2023-03-23T04:06:16;17.80;52.10
67870;DHT22;54673;52.262;6.830;2023-03-23T04:08:42;17.80;52.10
67870;DHT22;54673;52.262;6.830;2023-03-23T04:11:09;17.80;52.10
67870;DHT22;54673;52.262;6.830;2023-03-23T04:13:35;17.80;52.10
67870;DHT22;54673;52.262;6.830;2023-03-23T04:16:01;17.70;52.10
67870;DHT22;54673;52.262;6.830;2023-03-23T04:18:27;17.70;52.10
67870;DHT22;54673;52.262;6.830;2023-03-23T04:20:53;17.80;52.20
67870;DHT22;54673;52.262;6.830;2023-03-23T04:23:25;17.80;52.10
67870;DHT22;54673;52.262;6.830;2023-03-23T04:25:51;17.70;52.10
67870;DHT22;54673;52.262;6.830;2023-03-23T04:28:18;17.80;52.10
67870;DHT22;54673;52.262;6.830;2023-03-23T04:30:48;17.70;52.10
67870;DHT22;54673;52.262;6.830;2023-03-23T04:33:19;17.80;52.10
67870;DHT22;54673;52.262;6.830;2023-03-23T04:35:45;17.80;52.10
67870;DHT22;54673;52.262;6.830;2023-03-23T04:38:15;17.80;52.10
67870;DHT22;54673;52.262;6.830;2023-03-23T04:40:42;17.80;52.10
67870;DHT22;54673;52.262;6.830;2023-03-23T04:43:08;17.80;52.10
67870;DHT22;54673;52.262;6.830;2023-03-23T04:45:35;17.80;52.20
67870;DHT22;54673;52.262;6.830;2023-03-23T04:48:03;17.80;52.10
67870;DHT22;54673;52.262;6.830;2023-03-23T04:50:31;17.80;52.10
67870;DHT22;54673;52.262;6.830;2023-03-23T04:52:59;17.70;52.00
67870;DHT22;54673;52.262;6.830;2023-03-23T04:55:30;17.80;52.10
67870;DHT22;54673;52.262;6.830;2023-03-23T04:57:56;17.80;52.10
67870;DHT22;54673;52.262;6.830;2023-03-23T05:00:25;17.70;52.10
67870;DHT22;54673;52.262;6.830;2023-03-23T05:02:51;17.70;52.00
67870;DHT22;54673;52.262;6.830;2023-03-23T05:05:17;17.80;52.10
67870;DHT22;54673;52.262;6.830;2023-03-23T05:07:43;17.70;52.00
67870;DHT22;54673;52.262;6.830;2023-03-23T05:10:10;17.70;52.10
67870;DHT22;54673;52.262;6.830;2023-03-23T05:12:37;17.70;52.10
67870;DHT22;54673;52.262;6.830;2023-03-23T05:15:03;17.70;52.10
67870;DHT22;54673;52.262;6.830;2023-03-23T05:17:29;17.70;52.10
67870;DHT22;54673;52.262;6.830;2023-03-23T05:19:55;17.70;52.10
67870;DHT22;54673;52.262;6.830;2023-03-23T05:22:22;17.80;52.10
67870;DHT22;54673;52.262;6.830;2023-03-23T05:24:48;17.80;52.10
67870;DHT22;54673;52.262;6.830;2023-03-23T05:27:16;17.80;52.10
67870;DHT22;54673;52.262;6.830;2023-03-23T05:29:44;17.80;52.10
67870;DHT22;54673;52.262;6.830;2023-03-23T05:32:11;17.80;52.10
67870;DHT22;54673;52.262;6.830;2023-03-23T05:34:37;17.80;52.10
67870;DHT22;54673;52.262;6.830;2023-03-23T05:37:03;17.80;52.10
67870;DHT22;54673;52.262;6.830;2023-03-23T05:39:30;17.70;52.10
67870;DHT22;54673;52.262;6.830;2023-03-23T05:41:56;17.70;52.10
67870;DHT22;54673;52.262;6.830;2023-03-23T05:44:22;17.70;52.10
67870;DHT22;54673;52.262;6.830;2023-03-23T05:49:29;17.70;52.20
67870;DHT22;54673;52.262;6.830;2023-03-23T05:51:55;17.70;52.10
67870;DHT22;54673;52.262;6.830;2023-03-23T05:54:21;17.70;52.10
67870;DHT22;54673;52.262;6.830;2023-03-23T05:56:46;17.70;52.10
67870;DHT22;54673;52.262;6.830;2023-03-23T05:59:14;17.70;52.10
67870;DHT22;54673;52.262;6.830;2023-03-23T06:01:39;17.70;52.10
67870;DHT22;54673;52.262;6.830;2023-03-23T06:04:05;17.70;52.10
67870;DHT22;54673;52.262;6.830;2023-03-23T06:06:31;17.70;52.50
67870;DHT22;54673;52.262;6.830;2023-03-23T06:08:58;17.70;52.20
67870;DHT22;54673;52.262;6.830;2023-03-23T06:11:24;17.70;52.10
67870;DHT22;54673;52.262;6.830;2023-03-23T06:13:52;17.70;52.10
67870;DHT22;54673;52.262;6.830;2023-03-23T06:16:18;17.70;52.00
67870;DHT22;54673;52.262;6.830;2023-03-23T06:18:44;17.70;52.10
67870;DHT22;54673;52.262;6.830;2023-03-23T06:21:10;17.70;52.10
67870;DHT22;54673;52.262;6.830;2023-03-23T06:23:37;17.70;52.10
67870;DHT22;54673;52.262;6.830;2023-03-23T06:26:05;17.70;52.10
67870;DHT22;54673;52.262;6.830;2023-03-23T06:28:31;17.70;52.10
67870;DHT22;54673;52.262;6.830;2023-03-23T06:31:05;17.70;52.10
67870;DHT22;54673;52.262;6.830;2023-03-23T06:33:32;17.70;52.10
67870;DHT22;54673;52.262;6.830;2023-03-23T06:35:59;17.70;52.00
67870;DHT22;54673;52.262;6.830;2023-03-23T06:38:25;17.70;52.10
67870;DHT22;54673;52.262;6.830;2023-03-23T06:40:52;17.70;52.00
67870;DHT22;54673;52.262;6.830;2023-03-23T06:43:18;17.70;52.00
67870;DHT22;54673;52.262;6.830;2023-03-23T06:45:43;17.70;52.00
67870;DHT22;54673;52.262;6.830;2023-03-23T06:48:09;17.70;52.10
67870;DHT22;54673;52.262;6.830;2023-03-23T06:50:34;17.70;52.10
67870;DHT22;54673;52.262;6.830;2023-03-23T06:53:00;17.70;52.00
67870;DHT22;54673;52.262;6.830;2023-03-23T06:55:26;17.70;52.10
67870;DHT22;54673;52.262;6.830;2023-03-23T06:57:51;17.60;52.00
67870;DHT22;54673;52.262;6.830;2023-03-23T07:00:17;17.70;52.10
67870;DHT22;54673;52.262;6.830;2023-03-23T07:02:43;17.80;52.00
67870;DHT22;54673;52.262;6.830;2023-03-23T07:05:10;17.80;51.90
67870;DHT22;54673;52.262;6.830;2023-03-23T07:07:37;17.70;51.80
67870;DHT22;54673;52.262;6.830;2023-03-23T07:10:07;17.80;51.80
67870;DHT22;54673;52.262;6.830;2023-03-23T07:12:34;17.80;51.80
67870;DHT22;54673;52.262;6.830;2023-03-23T07:15:01;17.80;51.80
67870;DHT22;54673;52.262;6.830;2023-03-23T07:17:27;17.80;51.80
67870;DHT22;54673;52.262;6.830;2023-03-23T07:19:53;17.70;51.80
67870;DHT22;54673;52.262;6.830;2023-03-23T07:22:19;17.80;51.80
67870;DHT22;54673;52.262;6.830;2023-03-23T07:24:45;17.80;51.80
67870;DHT22;54673;52.262;6.830;2023-03-23T07:27:11;17.80;51.80
67870;DHT22;54673;52.262;6.830;2023-03-23T07:29:36;17.90;51.80
67870;DHT22;54673;52.262;6.830;2023-03-23T07:32:04;17.80;51.80
67870;DHT22;54673;52.262;6.830;2023-03-23T07:34:30;17.80;51.80
67870;DHT22;54673;52.262;6.830;2023-03-23T07:36:57;17.80;51.90
67870;DHT22;54673;52.262;6.830;2023-03-23T07:39:22;17.80;51.80
67870;DHT22;54673;52.262;6.830;2023-03-23T07:41:49;17.70;51.80
67870;DHT22;54673;52.262;6.830;2023-03-23T07:44:15;17.80;51.80
67870;DHT22;54673;52.262;6.830;2023-03-23T07:46:41;17.80;51.90
67870;DHT22;54673;52.262;6.830;2023-03-23T07:49:07;17.80;51.90
67870;DHT22;54673;52.262;6.830;2023-03-23T07:51:33;17.70;51.90
67870;DHT22;54673;52.262;6.830;2023-03-23T07:53:59;17.80;51.90
67870;DHT22;54673;52.262;6.830;2023-03-23T07:56:27;17.80;52.00
67870;DHT22;54673;52.262;6.830;2023-03-23T07:58:53;17.70;51.80
67870;DHT22;54673;52.262;6.830;2023-03-23T08:01:19;17.70;51.90
67870;DHT22;54673;52.262;6.830;2023-03-23T08:03:44;17.70;51.80
67870;DHT22;54673;52.262;6.830;2023-03-23T08:06:10;17.70;51.80
67870;DHT22;54673;52.262;6.830;2023-03-23T08:08:36;17.80;51.90
67870;DHT22;54673;52.262;6.830;2023-03-23T08:11:03;17.80;52.00
67870;DHT22;54673;52.262;6.830;2023-03-23T08:13:28;17.70;52.00
67870;DHT22;54673;52.262;6.830;2023-03-23T08:15:54;17.80;52.00
67870;DHT22;54673;52.262;6.830;2023-03-23T08:18:20;17.80;52.00
67870;DHT22;54673;52.262;6.830;2023-03-23T08:20:46;17.80;52.00
67870;DHT22;54673;52.262;6.830;2023-03-23T08:23:11;17.80;52.80
67870;DHT22;54673;52.262;6.830;2023-03-23T08:25:37;17.70;52.80
67870;DHT22;54673;52.262;6.830;2023-03-23T08:28:03;17.70;51.90
67870;DHT22;54673;52.262;6.830;2023-03-23T08:30:30;17.70;51.90
67870;DHT22;54673;52.262;6.830;2023-03-23T08:32:57;17.80;51.90
67870;DHT22;54673;52.262;6.830;2023-03-23T08:35:24;17.80;51.90
67870;DHT22;54673;52.262;6.830;2023-03-23T08:37:49;17.80;51.90
67870;DHT22;54673;52.262;6.830;2023-03-23T08:40:21;17.80;51.90
67870;DHT22;54673;52.262;6.830;2023-03-23T08:42:49;17.80;51.80
67870;DHT22;54673;52.262;6.830;2023-03-23T08:45:20;17.80;51.80
67870;DHT22;54673;52.262;6.830;2023-03-23T08:47:46;17.80;51.80
67870;DHT22;54673;52.262;6.830;2023-03-23T08:50:20;17.80;51.80
67870;DHT22;54673;52.262;6.830;2023-03-23T08:52:46;17.80;51.80
67870;DHT22;54673;52.262;6.830;2023-03-23T08:55:12;17.80;51.80
67870;DHT22;54673;52.262;6.830;2023-03-23T08:57:38;17.80;51.80
67870;DHT22;54673;52.262;6.830;2023-03-23T09:00:05;17.80;51.80
67870;DHT22;54673;52.262;6.830;2023-03-23T09:02:53;17.80;51.80
67870;DHT22;54673;52.262;6.830;2023-03-23T09:05:21;17.80;51.90
67870;DHT22;54673;52.262;6.830;2023-03-23T09:07:50;17.80;51.90
67870;DHT22;54673;52.262;6.830;2023-03-23T09:10:16;17.80;51.90
67870;DHT22;54673;52.262;6.830;2023-03-23T09:12:43;17.80;51.90
67870;DHT22;54673;52.262;6.830;2023-03-23T09:15:13;17.80;52.00
67870;DHT22;54673;52.262;6.830;2023-03-23T09:17:44;17.70;51.80
67870;DHT22;54673;52.262;6.830;2023-03-23T09:20:12;17.80;51.90
67870;DHT22;54673;52.262;6.830;2023-03-23T09:22:40;17.80;51.90
67870;DHT22;54673;52.262;6.830;2023-03-23T09:25:08;17.80;51.90
67870;DHT22;54673;52.262;6.830;2023-03-23T09:27:34;17.80;51.90
67870;DHT22;54673;52.262;6.830;2023-03-23T09:30:09;17.80;51.90
67870;DHT22;54673;52.262;6.830;2023-03-23T09:32:36;17.80;51.90
67870;DHT22;54673;52.262;6.830;2023-03-23T09:35:03;17.80;52.50
67870;DHT22;54673;52.262;6.830;2023-03-23T09:37:29;17.80;52.50
67870;DHT22;54673;52.262;6.830;2023-03-23T09:39:55;17.80;52.70
67870;DHT22;54673;52.262;6.830;2023-03-23T09:45:26;17.70;53.20
67870;DHT22;54673;52.262;6.830;2023-03-23T09:50:50;17.70;53.90
67870;DHT22;54673;52.262;6.830;2023-03-23T09:53:37;17.60;54.00
67870;DHT22;54673;52.262;6.830;2023-03-23T09:56:11;17.70;54.30
67870;DHT22;54673;52.262;6.830;2023-03-23T10:01:44;17.70;54.50
67870;DHT22;54673;52.262;6.830;2023-03-23T10:04:24;17.70;54.70
67870;DHT22;54673;52.262;6.830;2023-03-23T10:06:56;17.70;54.90
67870;DHT22;54673;52.262;6.830;2023-03-23T10:09:23;17.80;54.90
67870;DHT22;54673;52.262;6.830;2023-03-23T10:17:45;17.90;55.00
67870;DHT22;54673;52.262;6.830;2023-03-23T10:20:25;17.90;55.50
67870;DHT22;54673;52.262;6.830;2023-03-23T10:28:20;18.00;55.30
67870;DHT22;54673;52.262;6.830;2023-03-23T10:30:49;18.00;55.20
67870;DHT22;54673;52.262;6.830;2023-03-23T10:33:25;18.00;55.20
67870;DHT22;54673;52.262;6.830;2023-03-23T10:36:05;18.10;55.10
67870;DHT22;54673;52.262;6.830;2023-03-23T10:38:36;18.20;55.00
67870;DHT22;54673;52.262;6.830;2023-03-23T10:41:13;18.20;55.00
67870;DHT22;54673;52.262;6.830;2023-03-23T10:43:39;18.20;54.90
67870;DHT22;54673;52.262;6.830;2023-03-23T10:46:29;18.20;54.90
67870;DHT22;54673;52.262;6.830;2023-03-23T10:49:00;18.30;54.90
67870;DHT22;54673;52.262;6.830;2023-03-23T10:51:37;18.20;55.10
67870;DHT22;54673;52.262;6.830;2023-03-23T10:54:04;18.30;55.10
67870;DHT22;54673;52.262;6.830;2023-03-23T10:56:44;18.30;55.30
67870;DHT22;54673;52.262;6.830;2023-03-23T10:59:18;18.30;55.20
67870;DHT22;54673;52.262;6.830;2023-03-23T11:01:49;18.30;55.30
67870;DHT22;54673;52.262;6.830;2023-03-23T11:04:17;18.30;55.30
67870;DHT22;54673;52.262;6.830;2023-03-23T11:06:46;18.40;55.40
67870;DHT22;54673;52.262;6.830;2023-03-23T11:09:18;18.40;55.40
67870;DHT22;54673;52.262;6.830;2023-03-23T11:11:50;18.40;55.40
67870;DHT22;54673;52.262;6.830;2023-03-23T11:14:33;18.40;55.80
67870;DHT22;54673;52.262;6.830;2023-03-23T11:17:18;18.40;55.80
67870;DHT22;54673;52.262;6.830;2023-03-23T11:19:45;18.40;55.90
67870;DHT22;54673;52.262;6.830;2023-03-23T11:22:23;18.50;56.10
67870;DHT22;54673;52.262;6.830;2023-03-23T11:24:53;18.50;55.50
67870;DHT22;54673;52.262;6.830;2023-03-23T11:27:20;18.60;55.00
67870;DHT22;54673;52.262;6.830;2023-03-23T11:29:55;18.70;54.60
67870;DHT22;54673;52.262;6.830;2023-03-23T11:32:26;18.70;54.20
67870;DHT22;54673;52.262;6.830;2023-03-23T11:34:57;18.80;54.00
67870;DHT22;54673;52.262;6.830;2023-03-23T11:37:39;18.80;53.80
67870;DHT22;54673;52.262;6.830;2023-03-23T11:42:38;18.80;53.40
67870;DHT22;54673;52.262;6.830;2023-03-23T11:48:27;18.80;53.10
67870;DHT22;54673;52.262;6.830;2023-03-23T11:51:01;18.80;53.00
67870;DHT22;54673;52.262;6.830;2023-03-23T11:53:42;18.70;53.00
67870;DHT22;54673;52.262;6.830;2023-03-23T11:56:30;18.80;53.00
67870;DHT22;54673;52.262;6.830;2023-03-23T11:58:57;18.80;53.00
67870;DHT22;54673;52.262;6.830;2023-03-23T12:09:55;18.70;52.80
67870;DHT22;54673;52.262;6.830;2023-03-23T12:12:38;18.70;52.80
67870;DHT22;54673;52.262;6.830;2023-03-23T12:15:25;18.70;52.80
67870;DHT22;54673;52.262;6.830;2023-03-23T12:21:04;18.70;52.60
67870;DHT22;54673;52.262;6.830;2023-03-23T12:23:50;18.70;52.50
67870;DHT22;54673;52.262;6.830;2023-03-23T12:26:23;18.70;52.50
67870;DHT22;54673;52.262;6.830;2023-03-23T12:29:25;18.70;52.40
67870;DHT22;54673;52.262;6.830;2023-03-23T12:35:14;18.70;52.50
67870;DHT22;54673;52.262;6.830;2023-03-23T12:38:06;18.70;52.50
67870;DHT22;54673;52.262;6.830;2023-03-23T12:40:50;18.70;52.40
67870;DHT22;54673;52.262;6.830;2023-03-23T12:54:59;18.60;52.50
67870;DHT22;54673;52.262;6.830;2023-03-23T12:57:34;18.60;52.30
67870;DHT22;54673;52.262;6.830;2023-03-23T13:00:17;18.60;52.20
67870;DHT22;54673;52.262;6.830;2023-03-23T13:07:59;18.60;52.20
67870;DHT22;54673;52.262;6.830;2023-03-23T13:13:04;18.60;52.10
67870;DHT22;54673;52.262;6.830;2023-03-23T13:21:09;18.60;52.20
67870;DHT22;54673;52.262;6.830;2023-03-23T13:23:41;18.60;52.20
67870;DHT22;54673;52.262;6.830;2023-03-23T13:26:10;18.60;52.20
67870;DHT22;54673;52.262;6.830;2023-03-23T13:29:00;18.60;52.10
67870;DHT22;54673;52.262;6.830;2023-03-23T13:31:32;18.60;52.60
67870;DHT22;54673;52.262;6.830;2023-03-23T13:34:05;18.60;52.10
67870;DHT22;54673;52.262;6.830;2023-03-23T13:36:58;18.60;52.10
67870;DHT22;54673;52.262;6.830;2023-03-23T13:39:26;18.50;52.20
67870;DHT22;54673;52.262;6.830;2023-03-23T13:47:34;18.50;52.30
67870;DHT22;54673;52.262;6.830;2023-03-23T13:50:03;18.50;52.30
67870;DHT22;54673;52.262;6.830;2023-03-23T14:03:16;18.50;52.70
67870;DHT22;54673;52.262;6.830;2023-03-23T14:05:43;18.30;53.60
67870;DHT22;54673;52.262;6.830;2023-03-23T14:10:55;18.20;54.30
67870;DHT22;54673;52.262;6.830;2023-03-23T14:13:38;18.20;54.40
67870;DHT22;54673;52.262;6.830;2023-03-23T14:16:23;18.40;54.10
67870;DHT22;54673;52.262;6.830;2023-03-23T14:19:00;18.40;54.00
67870;DHT22;54673;52.262;6.830;2023-03-23T14:21:34;18.40;54.10
67870;DHT22;54673;52.262;6.830;2023-03-23T14:24:17;18.40;54.20
67870;DHT22;54673;52.262;6.830;2023-03-23T14:26:44;18.50;54.20
67870;DHT22;54673;52.262;6.830;2023-03-23T14:29:11;18.50;54.20
67870;DHT22;54673;52.262;6.830;2023-03-23T14:31:38;18.50;54.40
67870;DHT22;54673;52.262;6.830;2023-03-23T14:34:16;18.50;54.40
67870;DHT22;54673;52.262;6.830;2023-03-23T14:36:44;18.50;54.50
67870;DHT22;54673;52.262;6.830;2023-03-23T14:41:51;18.40;55.10
67870;DHT22;54673;52.262;6.830;2023-03-23T14:44:21;18.40;55.30
67870;DHT22;54673;52.262;6.830;2023-03-23T14:46:47;18.40;55.60
67870;DHT22;54673;52.262;6.830;2023-03-23T14:49:16;18.40;56.80
67870;DHT22;54673;52.262;6.830;2023-03-23T14:51:52;18.30;57.40
67870;DHT22;54673;52.262;6.830;2023-03-23T14:54:26;18.20;57.10
67870;DHT22;54673;52.262;6.830;2023-03-23T14:56:52;18.30;57.30
67870;DHT22;54673;52.262;6.830;2023-03-23T14:59:18;18.30;57.20
67870;DHT22;54673;52.262;6.830;2023-03-23T15:01:46;18.30;57.80
67870;DHT22;54673;52.262;6.830;2023-03-23T15:04:17;18.30;56.70
67870;DHT22;54673;52.262;6.830;2023-03-23T15:06:48;18.40;56.70
67870;DHT22;54673;52.262;6.830;2023-03-23T15:09:18;18.40;56.40
67870;DHT22;54673;52.262;6.830;2023-03-23T15:11:52;18.40;56.20
67870;DHT22;54673;52.262;6.830;2023-03-23T15:14:25;18.50;55.60
67870;DHT22;54673;52.262;6.830;2023-03-23T15:16:53;18.70;55.00
67870;DHT22;54673;52.262;6.830;2023-03-23T15:19:35;18.70;54.60
67870;DHT22;54673;52.262;6.830;2023-03-23T15:22:44;18.80;55.30
67870;DHT22;54673;52.262;6.830;2023-03-23T15:25:31;18.10;53.70
67870;DHT22;54673;52.262;6.830;2023-03-23T15:28:09;18.70;54.40
67870;DHT22;54673;52.262;6.830;2023-03-23T15:30:50;18.50;55.60
67870;DHT22;54673;52.262;6.830;2023-03-23T15:33:17;18.50;56.10
67870;DHT22;54673;52.262;6.830;2023-03-23T15:35:48;18.50;56.20
67870;DHT22;54673;52.262;6.830;2023-03-23T15:38:26;18.50;56.30
67870;DHT22;54673;52.262;6.830;2023-03-23T15:40:57;18.50;56.30
67870;DHT22;54673;52.262;6.830;2023-03-23T15:43:50;18.60;56.30
67870;DHT22;54673;52.262;6.830;2023-03-23T15:48:53;18.60;56.20
67870;DHT22;54673;52.262;6.830;2023-03-23T15:51:28;18.70;56.20
67870;DHT22;54673;52.262;6.830;2023-03-23T15:53:56;18.80;56.10
67870;DHT22;54673;52.262;6.830;2023-03-23T15:56:22;18.90;56.10
67870;DHT22;54673;52.262;6.830;2023-03-23T15:58:48;19.00;56.80
67870;DHT22;54673;52.262;6.830;2023-03-23T16:01:22;19.10;55.70
67870;DHT22;54673;52.262;6.830;2023-03-23T16:04:15;19.30;55.60
67870;DHT22;54673;52.262;6.830;2023-03-23T16:06:42;19.30;55.40
67870;DHT22;54673;52.262;6.830;2023-03-23T16:09:16;19.40;55.40
67870;DHT22;54673;52.262;6.830;2023-03-23T16:11:42;19.40;55.50
67870;DHT22;54673;52.262;6.830;2023-03-23T16:14:08;19.40;55.70
67870;DHT22;54673;52.262;6.830;2023-03-23T16:19:04;19.40;55.70
67870;DHT22;54673;52.262;6.830;2023-03-23T16:21:31;19.50;55.60
67870;DHT22;54673;52.262;6.830;2023-03-23T16:23:57;19.50;55.30
67870;DHT22;54673;52.262;6.830;2023-03-23T16:26:23;19.60;55.20
67870;DHT22;54673;52.262;6.830;2023-03-23T16:28:49;19.70;55.10
67870;DHT22;54673;52.262;6.830;2023-03-23T16:31:14;19.60;55.00
67870;DHT22;54673;52.262;6.830;2023-03-23T16:33:40;19.70;55.10
67870;DHT22;54673;52.262;6.830;2023-03-23T16:36:06;19.70;55.00
67870;DHT22;54673;52.262;6.830;2023-03-23T16:38:32;19.80;54.90
67870;DHT22;54673;52.262;6.830;2023-03-23T16:40:58;19.80;54.90
67870;DHT22;54673;52.262;6.830;2023-03-23T16:43:23;19.90;55.00
67870;DHT22;54673;52.262;6.830;2023-03-23T16:45:49;19.90;55.00
67870;DHT22;54673;52.262;6.830;2023-03-23T16:48:15;19.90;54.80
67870;DHT22;54673;52.262;6.830;2023-03-23T16:50:42;20.00;54.90
67870;DHT22;54673;52.262;6.830;2023-03-23T16:53:08;20.00;54.70
67870;DHT22;54673;52.262;6.830;2023-03-23T16:55:35;19.90;54.70
67870;DHT22;54673;52.262;6.830;2023-03-23T16:58:02;20.00;54.70
67870;DHT22;54673;52.262;6.830;2023-03-23T17:00:28;20.00;54.90
67870;DHT22;54673;52.262;6.830;2023-03-23T17:02:55;19.90;54.90
67870;DHT22;54673;52.262;6.830;2023-03-23T17:05:26;19.80;55.10
67870;DHT22;54673;52.262;6.830;2023-03-23T17:07:53;19.80;55.10
67870;DHT22;54673;52.262;6.830;2023-03-23T17:10:20;19.80;55.10
67870;DHT22;54673;52.262;6.830;2023-03-23T17:12:46;19.80;55.20
67870;DHT22;54673;52.262;6.830;2023-03-23T17:15:11;19.80;54.90
67870;DHT22;54673;52.262;6.830;2023-03-23T17:17:37;19.90;54.60
67870;DHT22;54673;52.262;6.830;2023-03-23T17:20:04;20.20;54.70
67870;DHT22;54673;52.262;6.830;2023-03-23T17:22:30;20.20;53.10
67870;DHT22;54673;52.262;6.830;2023-03-23T17:24:56;20.30;53.00
67870;DHT22;54673;52.262;6.830;2023-03-23T17:27:23;20.20;52.80
67870;DHT22;54673;52.262;6.830;2023-03-23T17:29:49;20.20;52.70
67870;DHT22;54673;52.262;6.830;2023-03-23T17:32:14;20.20;52.80
67870;DHT22;54673;52.262;6.830;2023-03-23T17:34:40;20.10;52.50
67870;DHT22;54673;52.262;6.830;2023-03-23T17:37:06;20.10;52.50